Time;durP1;ratioP1;P1;durP2;ratioP2;P2;SDS_P1;SDS_P2;PMS_P1;PMS_P2;Temp;Humidity;BMP_temperature;BMP_pressure;BME280_temperature;BME280_humidity;BME280_pressure;Samples;Min_cycle;Max_cycle;Signal;HPM_P1;HPM_P2
2022/09/04 00:01:53;;;;;;;0.90;0.90;;;;;;;;;;5033079;28;20216;-77
2022/09/04 00:04:30;;;;;;;0.80;0.80;;;;;;;;;;5033035;28;20205;-77
2022/09/04 00:07:12;;;;;;;0.82;0.82;;;;;;;;;;5032809;28;20888;-77
2022/09/04 00:09:48;;;;;;;0.70;0.70;;;;;;;;;;5032971;28;20749;-77
2022/09/04 00:12:22;;;;;;;1.10;1.02;;;;;;;;;;5033050;28;20258;-77
2022/09/04 00:14:54;;;;;;;0.90;0.90;;;;;;;;;;5032822;28;20634;-77
2022/09/04 00:17:28;;;;;;;0.77;0.77;;;;;;;;;;5032839;28;20316;-77
2022/09/04 00:20:00;;;;;;;1.30;0.70;;;;;;;;;;5032838;28;20573;-77
2022/09/04 00:22:33;;;;;;;0.80;0.80;;;;;;;;;;5041613;28;20740;-77
2022/09/04 00:25:09;;;;;;;0.68;0.68;;;;;;;;;;5052298;28;20285;-77
2022/09/04 00:27:44;;;;;;;0.80;0.80;;;;;;;;;;5052518;28;20287;-77
2022/09/04 00:30:18;;;;;;;4.13;1.00;;;;;;;;;;5052498;28;20209;-77
2022/09/04 00:32:53;;;;;;;1.10;1.00;;;;;;;;;;5052745;28;20221;-77
2022/09/04 00:35:24;;;;;;;1.05;1.05;;;;;;;;;;5052538;28;20208;-77
2022/09/04 00:37:58;;;;;;;1.00;1.00;;;;;;;;;;5052089;28;20305;-77
2022/09/04 00:40:30;;;;;;;0.80;0.80;;;;;;;;;;5052354;28;20204;-77
2022/09/04 00:43:36;;;;;;;0.90;0.90;;;;;;;;;;5052261;28;20292;-77
2022/09/04 00:46:27;;;;;;;0.90;0.90;;;;;;;;;;5037450;28;20293;-77
2022/09/04 00:49:51;;;;;;;1.10;1.10;;;;;;;;;;5052061;28;20266;-76
2022/09/04 00:52:35;;;;;;;0.90;0.90;;;;;;;;;;5035763;28;20229;-75
2022/09/04 00:55:24;;;;;;;1.48;1.40;;;;;;;;;;5052094;28;20294;-77
2022/09/04 00:58:34;;;;;;;1.13;1.02;;;;;;;;;;5051736;28;20771;-77
2022/09/04 01:01:02;;;;;;;0.73;0.73;;;;;;;;;;5051535;28;20263;-76
2022/09/04 01:03:50;;;;;;;0.80;0.80;;;;;;;;;;5051672;28;20225;-76
2022/09/04 01:06:45;;;;;;;0.80;0.80;;;;;;;;;;5051679;28;20202;-77
2022/09/04 01:09:43;;;;;;;1.35;0.90;;;;;;;;;;5042637;28;20205;-77
2022/09/04 01:12:24;;;;;;;1.10;1.00;;;;;;;;;;5034966;28;20566;-77
2022/09/04 01:14:59;;;;;;;0.85;0.85;;;;;;;;;;5051805;28;20237;-76
2022/09/04 01:17:32;;;;;;;0.80;0.80;;;;;;;;;;5051630;28;20661;-77
2022/09/04 01:20:07;;;;;;;1.15;0.82;;;;;;;;;;5051560;28;20297;-77
2022/09/04 01:23:22;;;;;;;0.90;0.90;;;;;;;;;;5051572;28;20279;-76
2022/09/04 01:26:14;;;;;;;1.20;1.10;;;;;;;;;;5051812;28;20201;-77
2022/09/04 01:28:58;;;;;;;0.80;0.80;;;;;;;;;;5051497;28;20292;-77
2022/09/04 01:31:36;;;;;;;0.80;0.80;;;;;;;;;;5051628;28;20201;-77
2022/09/04 01:34:21;;;;;;;1.13;1.05;;;;;;;;;;5051526;28;20227;-77
2022/09/04 01:36:56;;;;;;;0.95;0.90;;;;;;;;;;5051248;28;20228;-77
2022/09/04 01:39:26;;;;;;;1.08;1.08;;;;;;;;;;5051711;28;20227;-76
2022/09/04 01:42:01;;;;;;;0.90;0.90;;;;;;;;;;5051701;28;20232;-77
2022/09/04 01:44:29;;;;;;;1.00;1.00;;;;;;;;;;5051765;28;20205;-77
2022/09/04 01:47:08;;;;;;;0.90;0.90;;;;;;;;;;5051373;28;20388;-77
2022/09/04 01:49:39;;;;;;;1.00;1.00;;;;;;;;;;5051572;28;20292;-77
2022/09/04 01:52:21;;;;;;;1.42;1.20;;;;;;;;;;5051642;28;20312;-77
2022/09/04 01:54:57;;;;;;;1.33;1.20;;;;;;;;;;5051644;28;20209;-77
2022/09/04 01:57:46;;;;;;;0.80;0.80;;;;;;;;;;5051309;28;20216;-77
2022/09/04 02:00:17;;;;;;;1.50;1.40;;;;;;;;;;5051707;28;20202;-77
2022/09/04 02:02:55;;;;;;;1.40;1.30;;;;;;;;;;5051374;28;20950;-77
2022/09/04 02:05:31;;;;;;;1.20;1.20;;;;;;;;;;5051474;28;20568;-76
2022/09/04 02:08:16;;;;;;;2.25;1.20;;;;;;;;;;5051219;28;20202;-76
2022/09/04 02:10:50;;;;;;;1.30;1.20;;;;;;;;;;5051315;28;20296;-77
2022/09/04 02:13:23;;;;;;;2.00;1.10;;;;;;;;;;5054479;28;20661;-77
2022/09/04 02:16:04;;;;;;;1.00;1.00;;;;;;;;;;5055388;28;20209;-77
2022/09/04 02:18:44;;;;;;;1.45;1.13;;;;;;;;;;5054716;28;20225;-77
2022/09/04 02:21:18;;;;;;;1.65;0.93;;;;;;;;;;5055104;28;20704;-77
2022/09/04 02:23:52;;;;;;;1.38;1.23;;;;;;;;;;5054920;28;20239;-76
2022/09/04 02:26:24;;;;;;;0.82;0.82;;;;;;;;;;5054819;28;20205;-76
2022/09/04 02:29:00;;;;;;;0.90;0.90;;;;;;;;;;5054851;28;20208;-75
2022/09/04 02:31:33;;;;;;;1.00;1.00;;;;;;;;;;5056058;28;20287;-77
2022/09/04 02:34:07;;;;;;;1.20;1.17;;;;;;;;;;5056425;28;20414;-76
2022/09/04 02:36:41;;;;;;;0.82;0.82;;;;;;;;;;5056162;28;20284;-78
2022/09/04 02:39:22;;;;;;;1.40;1.10;;;;;;;;;;5057328;28;20289;-77
2022/09/04 02:41:58;;;;;;;0.90;0.90;;;;;;;;;;5057439;28;20202;-78
2022/09/04 02:44:37;;;;;;;1.23;1.13;;;;;;;;;;5057713;28;20237;-78
2022/09/04 02:47:12;;;;;;;1.10;1.10;;;;;;;;;;5057009;28;20197;-78
2022/09/04 02:49:51;;;;;;;1.40;0.90;;;;;;;;;;5057174;28;20772;-77
2022/09/04 02:52:40;;;;;;;1.50;1.40;;;;;;;;;;5056968;28;20227;-78
2022/09/04 02:55:22;;;;;;;1.40;1.30;;;;;;;;;;5057482;28;20210;-76
2022/09/04 02:58:01;;;;;;;1.48;1.20;;;;;;;;;;5056895;28;20624;-76
2022/09/04 03:00:40;;;;;;;1.20;1.10;;;;;;;;;;5057135;28;20851;-78
2022/09/04 03:03:13;;;;;;;1.25;1.17;;;;;;;;;;5057415;28;20289;-77
2022/09/04 03:05:50;;;;;;;2.00;1.20;;;;;;;;;;5057338;28;20296;-78
2022/09/04 03:08:22;;;;;;;3.30;1.20;;;;;;;;;;5056266;28;20229;-78
2022/09/04 03:10:56;;;;;;;0.95;0.93;;;;;;;;;;5056709;28;20609;-77
2022/09/04 03:13:30;;;;;;;1.08;1.08;;;;;;;;;;5056925;28;20225;-78
2022/09/04 03:16:05;;;;;;;1.13;0.93;;;;;;;;;;5056984;28;20281;-78
2022/09/04 03:18:51;;;;;;;1.00;0.90;;;;;;;;;;5056370;28;20824;-78
2022/09/04 03:21:23;;;;;;;1.10;1.10;;;;;;;;;;5057190;28;20225;-77
2022/09/04 03:23:54;;;;;;;1.33;1.30;;;;;;;;;;5056887;22;20722;-82
2022/09/04 03:26:24;;;;;;;0.98;0.98;;;;;;;;;;5035082;28;20627;-81
2022/09/04 03:29:08;;;;;;;1.10;1.10;;;;;;;;;;5035242;28;20727;-81
2022/09/04 03:31:45;;;;;;;0.85;0.85;;;;;;;;;;5035412;28;20191;-82
2022/09/04 03:34:30;;;;;;;0.70;0.70;;;;;;;;;;5034777;28;20304;-82
2022/09/04 03:37:29;;;;;;;1.10;1.00;;;;;;;;;;5034533;28;20191;-82
2022/09/04 03:40:18;;;;;;;0.82;0.82;;;;;;;;;;5034961;28;20234;-80
2022/09/04 03:43:06;;;;;;;1.00;1.00;;;;;;;;;;5034558;28;20191;-81
2022/09/04 03:45:42;;;;;;;0.75;0.75;;;;;;;;;;5034687;28;20206;-81
2022/09/04 03:48:32;;;;;;;1.20;1.20;;;;;;;;;;5034292;28;20277;-82
2022/09/04 03:51:14;;;;;;;0.85;0.85;;;;;;;;;;5034559;28;20624;-81
2022/09/04 03:53:45;;;;;;;0.90;0.90;;;;;;;;;;5034691;28;20313;-82
2022/09/04 03:56:50;;;;;;;0.82;0.82;;;;;;;;;;5034356;28;20189;-82
2022/09/04 03:59:40;;;;;;;0.70;0.70;;;;;;;;;;5032651;28;20309;-82
2022/09/04 04:02:15;;;;;;;0.80;0.80;;;;;;;;;;5034702;28;20211;-82
2022/09/04 04:05:13;;;;;;;0.70;0.70;;;;;;;;;;5034343;28;20249;-83
2022/09/04 04:07:49;;;;;;;1.83;0.95;;;;;;;;;;5020821;28;20238;-82
2022/09/04 04:10:32;;;;;;;0.82;0.82;;;;;;;;;;5034015;28;20218;-82
2022/09/04 04:13:26;;;;;;;1.05;1.05;;;;;;;;;;5034501;28;20191;-82
2022/09/04 04:16:11;;;;;;;0.90;0.90;;;;;;;;;;5031577;28;20261;-82
2022/09/04 04:18:53;;;;;;;0.90;0.90;;;;;;;;;;5034083;28;20225;-81
2022/09/04 04:21:33;;;;;;;1.00;1.00;;;;;;;;;;5034047;28;20197;-82
2022/09/04 04:24:27;;;;;;;1.00;1.00;;;;;;;;;;5033922;28;20257;-83
2022/09/04 04:27:10;;;;;;;1.20;1.10;;;;;;;;;;5033743;28;20192;-82
2022/09/04 04:29:52;;;;;;;1.17;1.10;;;;;;;;;;5034192;28;20237;-81
2022/09/04 04:32:52;;;;;;;1.13;1.13;;;;;;;;;;5033738;28;20241;-82
2022/09/04 04:35:33;;;;;;;0.90;0.90;;;;;;;;;;5032945;28;20222;-82
2022/09/04 04:38:17;;;;;;;0.93;0.90;;;;;;;;;;5033637;28;20263;-82
2022/09/04 04:41:03;;;;;;;1.05;1.00;;;;;;;;;;5033906;28;20807;-83
2022/09/04 04:43:44;;;;;;;1.02;1.02;;;;;;;;;;5033636;28;20264;-82
2022/09/04 04:46:16;;;;;;;1.10;1.10;;;;;;;;;;5033692;28;20252;-82
2022/09/04 04:49:25;;;;;;;1.05;1.02;;;;;;;;;;5034108;28;20183;-82
2022/09/04 04:52:17;;;;;;;0.90;0.90;;;;;;;;;;5033346;28;20293;-82
2022/09/04 04:55:05;;;;;;;1.20;1.10;;;;;;;;;;5033517;28;20236;-82
2022/09/04 04:57:42;;;;;;;1.52;1.40;;;;;;;;;;5033573;28;20203;-81
2022/09/04 05:00:18;;;;;;;1.08;1.08;;;;;;;;;;5033502;28;20253;-82
2022/09/04 05:03:00;;;;;;;1.40;1.30;;;;;;;;;;5033858;28;20229;-81
2022/09/04 05:05:50;;;;;;;1.33;1.23;;;;;;;;;;5033886;28;20628;-85
2022/09/04 05:08:31;;;;;;;1.00;1.00;;;;;;;;;;5033337;28;20183;-85
2022/09/04 05:11:08;;;;;;;1.33;1.23;;;;;;;;;;5033606;28;20178;-84
2022/09/04 05:13:46;;;;;;;1.17;1.17;;;;;;;;;;5033148;28;20225;-84
2022/09/04 05:16:22;;;;;;;1.20;1.10;;;;;;;;;;5033065;28;20214;-84
2022/09/04 05:18:57;;;;;;;1.05;1.05;;;;;;;;;;5033122;28;20218;-85
2022/09/04 05:21:33;;;;;;;1.00;1.00;;;;;;;;;;5033047;28;20253;-84
2022/09/04 05:24:04;;;;;;;2.35;1.63;;;;;;;;;;5033421;28;20313;-85
2022/09/04 05:26:43;;;;;;;1.25;1.25;;;;;;;;;;5033272;28;20218;-84
2022/09/04 05:29:16;;;;;;;0.82;0.82;;;;;;;;;;5033312;28;20674;-84
2022/09/04 05:31:51;;;;;;;0.82;0.82;;;;;;;;;;5033026;28;20667;-85
2022/09/04 05:34:29;;;;;;;1.40;1.30;;;;;;;;;;5033296;28;20690;-85
2022/09/04 05:37:07;;;;;;;1.40;1.30;;;;;;;;;;5032836;28;20190;-85
2022/09/04 05:39:46;;;;;;;1.77;1.38;;;;;;;;;;5033250;28;20256;-85
2022/09/04 05:42:44;;;;;;;0.98;0.98;;;;;;;;;;5033549;28;20218;-86
2022/09/04 05:45:24;;;;;;;1.13;1.13;;;;;;;;;;5033629;28;20288;-86
2022/09/04 05:48:02;;;;;;;1.30;1.10;;;;;;;;;;5037452;28;20236;-86
2022/09/04 05:51:22;;;;;;;1.15;1.15;;;;;;;;;;5037517;28;20269;-86
2022/09/04 05:54:16;;;;;;;0.90;0.90;;;;;;;;;;5016826;28;20271;-86
2022/09/04 05:57:06;;;;;;;1.30;1.25;;;;;;;;;;5037184;28;20190;-86
2022/09/04 06:00:09;;;;;;;1.88;1.67;;;;;;;;;;5037037;28;20293;-86
2022/09/04 06:03:39;;;;;;;1.30;1.20;;;;;;;;;;5036760;28;20190;-86
2022/09/04 06:06:16;;;;;;;1.95;1.73;;;;;;;;;;4989979;28;20267;-86
2022/09/04 06:09:27;;;;;;;1.60;1.50;;;;;;;;;;5036893;28;20270;-85
2022/09/04 06:12:23;;;;;;;1.70;1.60;;;;;;;;;;5031814;28;20202;-86
2022/09/04 06:15:14;;;;;;;1.65;1.30;;;;;;;;;;5036515;28;20280;-85
2022/09/04 06:18:07;;;;;;;2.33;1.40;;;;;;;;;;5036427;28;20174;-86
2022/09/04 06:21:00;;;;;;;1.80;1.70;;;;;;;;;;5023577;28;20222;-86
2022/09/04 06:23:49;;;;;;;1.73;1.63;;;;;;;;;;5036043;28;20218;-86
2022/09/04 06:26:27;;;;;;;1.80;1.70;;;;;;;;;;5021103;28;20820;-86
2022/09/04 06:29:26;;;;;;;2.45;1.73;;;;;;;;;;5036515;28;20229;-85
2022/09/04 06:32:31;;;;;;;6.57;1.98;;;;;;;;;;5036235;28;20223;-86
2022/09/04 06:35:22;;;;;;;3.53;3.25;;;;;;;;;;5031904;28;20288;-84
2022/09/04 06:38:03;;;;;;;1.80;1.70;;;;;;;;;;5035919;28;20183;-85
2022/09/04 06:40:54;;;;;;;1.55;1.45;;;;;;;;;;5036052;28;20252;-85
2022/09/04 06:43:40;;;;;;;1.60;1.40;;;;;;;;;;5036258;28;20690;-85
2022/09/04 06:46:19;;;;;;;1.45;1.35;;;;;;;;;;5035955;28;20190;-85
2022/09/04 06:48:59;;;;;;;2.35;1.80;;;;;;;;;;5035833;28;20233;-85
2022/09/04 06:51:47;;;;;;;1.50;1.40;;;;;;;;;;5035584;28;20240;-85
2022/09/04 06:54:29;;;;;;;1.80;1.70;;;;;;;;;;5035526;28;20380;-86
2022/09/04 06:57:13;;;;;;;1.95;1.85;;;;;;;;;;5035325;28;20589;-85
2022/09/04 06:59:56;;;;;;;1.67;1.58;;;;;;;;;;5035317;28;20222;-91
2022/09/04 07:02:41;;;;;;;1.63;1.42;;;;;;;;;;5035578;28;20859;-85
2022/09/04 07:05:21;;;;;;;1.50;1.40;;;;;;;;;;5035413;28;20260;-87
2022/09/04 07:07:59;;;;;;;1.40;1.30;;;;;;;;;;5035038;28;20249;-86
2022/09/04 07:10:30;;;;;;;1.60;1.50;;;;;;;;;;5034777;28;20187;-88
2022/09/04 07:13:48;;;;;;;1.90;1.80;;;;;;;;;;5034761;28;20640;-85
2022/09/04 07:16:35;;;;;;;3.15;2.10;;;;;;;;;;5024394;28;20667;-88
2022/09/04 07:19:21;;;;;;;2.15;1.45;;;;;;;;;;5034466;28;20241;-87
2022/09/04 07:22:04;;;;;;;1.58;1.42;;;;;;;;;;5034824;28;20250;-86
2022/09/04 07:25:04;;;;;;;2.03;1.85;;;;;;;;;;5034943;28;20258;-87
2022/09/04 07:27:44;;;;;;;1.42;1.33;;;;;;;;;;5031129;28;20202;-84
2022/09/04 07:30:14;;;;;;;2.28;1.70;;;;;;;;;;5034842;28;20186;-86
2022/09/04 07:32:48;;;;;;;1.60;1.50;;;;;;;;;;5034617;28;20195;-86
2022/09/04 07:35:23;;;;;;;1.48;1.40;;;;;;;;;;5034442;28;20226;-85
2022/09/04 07:37:57;;;;;;;2.00;1.55;;;;;;;;;;5034349;28;20236;-88
2022/09/04 07:40:29;;;;;;;1.63;1.38;;;;;;;;;;5034530;28;20233;-87
2022/09/04 07:43:06;;;;;;;1.55;1.45;;;;;;;;;;5034552;28;20222;-84
2022/09/04 07:45:37;;;;;;;2.70;1.60;;;;;;;;;;5034486;28;20178;-85
2022/09/04 07:48:20;;;;;;;3.15;1.65;;;;;;;;;;5034265;28;20218;-84
2022/09/04 07:51:05;;;;;;;3.17;2.00;;;;;;;;;;5034464;28;20194;-86
2022/09/04 07:54:07;;;;;;;2.05;1.85;;;;;;;;;;5034338;28;20261;-87
2022/09/04 07:56:52;;;;;;;2.08;1.95;;;;;;;;;;5003825;28;20284;-86
2022/09/04 07:59:38;;;;;;;1.95;1.83;;;;;;;;;;5034179;28;20190;-86
2022/09/04 08:02:20;;;;;;;2.40;2.20;;;;;;;;;;5033743;28;20237;-84
2022/09/04 08:05:24;;;;;;;4.75;3.20;;;;;;;;;;5033877;28;20260;-83
2022/09/04 08:08:05;;;;;;;1.92;1.83;;;;;;;;;;5033884;28;20186;-84
2022/09/04 08:10:41;;;;;;;2.03;1.92;;;;;;;;;;5032880;28;20213;-84
2022/09/04 08:13:24;;;;;;;1.92;1.83;;;;;;;;;;5033952;28;20545;-84
2022/09/04 08:15:59;;;;;;;1.70;1.60;;;;;;;;;;5033621;28;20222;-85
2022/09/04 08:18:40;;;;;;;2.80;2.60;;;;;;;;;;5033537;28;20224;-84
2022/09/04 08:21:22;;;;;;;1.98;1.80;;;;;;;;;;5033607;28;20199;-84
2022/09/04 08:24:22;;;;;;;2.30;2.10;;;;;;;;;;5033314;28;20269;-84
2022/09/04 08:27:04;;;;;;;1.63;1.52;;;;;;;;;;5033315;28;20663;-84
2022/09/04 08:29:50;;;;;;;4.93;2.22;;;;;;;;;;5033136;28;20237;-85
2022/09/04 08:32:59;;;;;;;2.10;1.73;;;;;;;;;;5033596;28;20186;-85
2022/09/04 08:35:31;;;;;;;2.03;1.88;;;;;;;;;;5013351;28;20233;-84
2022/09/04 08:38:38;;;;;;;2.20;2.00;;;;;;;;;;5033247;28;20255;-85
2022/09/04 08:41:37;;;;;;;1.75;1.65;;;;;;;;;;5033414;28;20635;-86
2022/09/04 08:45:01;;;;;;;2.10;2.00;;;;;;;;;;5030600;28;20624;-86
2022/09/04 08:48:18;;;;;;;2.17;1.98;;;;;;;;;;5032988;28;20210;-85
2022/09/04 08:51:33;;;;;;;2.83;2.58;;;;;;;;;;5033668;28;20608;-86
2022/09/04 08:54:37;;;;;;;1.95;1.85;;;;;;;;;;5033280;28;20788;-85
2022/09/04 08:57:43;;;;;;;1.73;1.63;;;;;;;;;;5032633;28;20655;-85
2022/09/04 09:00:15;;;;;;;2.38;2.00;;;;;;;;;;5003225;28;20207;-87
2022/09/04 09:03:30;;;;;;;2.97;2.78;;;;;;;;;;5013674;28;20207;-89
2022/09/04 09:06:53;;;;;;;2.50;2.30;;;;;;;;;;5013678;28;20242;-88
2022/09/04 09:09:48;;;;;;;2.83;2.63;;;;;;;;;;5013572;28;20215;-89
2022/09/04 09:13:17;;;;;;;3.80;2.95;;;;;;;;;;5013671;28;20619;-89
2022/09/04 09:16:21;;;;;;;2.80;2.60;;;;;;;;;;5011009;28;20245;-89
2022/09/04 09:19:11;;;;;;;3.08;2.80;;;;;;;;;;5012292;28;20234;-89
2022/09/04 09:22:10;;;;;;;3.00;2.70;;;;;;;;;;5015261;28;20187;-88
2022/09/04 09:25:12;;;;;;;2.97;2.60;;;;;;;;;;5033171;28;20229;-90
2022/09/04 09:28:54;;;;;;;3.42;3.13;;;;;;;;;;5032822;28;20194;-90
2022/09/04 09:32:23;;;;;;;2.10;2.00;;;;;;;;;;5012751;28;20341;-89
2022/09/04 09:35:54;;;;;;;2.38;2.17;;;;;;;;;;5033152;28;20275;-89
2022/09/04 09:38:47;;;;;;;3.03;2.78;;;;;;;;;;5009149;28;20206;-88
2022/09/04 09:41:38;;;;;;;2.17;2.00;;;;;;;;;;5032997;28;20639;-88
2022/09/04 09:44:43;;;;;;;2.35;1.67;;;;;;;;;;5033200;28;20292;-89
2022/09/04 09:47:55;;;;;;;2.35;2.25;;;;;;;;;;5010294;28;20242;-90
2022/09/04 09:51:08;;;;;;;2.33;2.20;;;;;;;;;;5033069;28;20234;-89
2022/09/04 09:54:16;;;;;;;2.42;2.22;;;;;;;;;;5032851;28;20222;-89
2022/09/04 09:57:23;;;;;;;3.45;2.65;;;;;;;;;;5012948;28;20198;-83
2022/09/04 10:00:14;;;;;;;2.00;1.80;;;;;;;;;;5013070;28;20224;-87
2022/09/04 10:03:38;;;;;;;1.92;1.83;;;;;;;;;;5012781;28;20662;-86
2022/09/04 10:07:09;;;;;;;2.63;2.40;;;;;;;;;;5013051;28;20215;-88
2022/09/04 10:10:02;;;;;;;1.90;1.80;;;;;;;;;;5007709;28;20286;-88
2022/09/04 10:12:58;;;;;;;3.03;1.90;;;;;;;;;;5012699;28;20242;-88
2022/09/04 10:16:15;;;;;;;2.83;2.03;;;;;;;;;;5012715;28;20615;-88
2022/09/04 10:19:23;;;;;;;2.20;2.10;;;;;;;;;;5012395;28;20222;-90
2022/09/04 10:22:33;;;;;;;1.95;1.85;;;;;;;;;;5009372;28;20671;-87
2022/09/04 10:25:38;;;;;;;2.75;1.40;;;;;;;;;;5012757;28;20728;-88
2022/09/04 10:28:39;;;;;;;1.70;1.60;;;;;;;;;;5012384;28;20274;-88
2022/09/04 10:31:46;;;;;;;1.77;1.67;;;;;;;;;;4988168;28;20254;-87
2022/09/04 10:34:58;;;;;;;1.70;1.60;;;;;;;;;;5015440;28;20253;-89
2022/09/04 10:37:46;;;;;;;1.50;1.40;;;;;;;;;;5016249;28;20293;-89
2022/09/04 10:40:35;;;;;;;1.65;1.55;;;;;;;;;;5016649;28;20241;-87
2022/09/04 10:43:39;;;;;;;1.50;1.40;;;;;;;;;;5016286;28;20211;-87
2022/09/04 10:46:11;;;;;;;1.30;1.30;;;;;;;;;;5016228;28;20218;-88
2022/09/04 10:49:19;;;;;;;1.92;1.23;;;;;;;;;;5015737;28;20191;-87
2022/09/04 10:52:31;;;;;;;1.40;1.30;;;;;;;;;;5019442;28;20206;-87
2022/09/04 10:55:31;;;;;;;1.70;1.60;;;;;;;;;;5035632;28;20257;-87
2022/09/04 10:58:24;;;;;;;1.60;1.50;;;;;;;;;;5035734;28;20273;-88
2022/09/04 11:01:20;;;;;;;1.23;1.13;;;;;;;;;;5035380;28;20182;-88
2022/09/04 11:04:14;;;;;;;1.48;1.38;;;;;;;;;;5035295;28;20685;-86
2022/09/04 11:07:26;;;;;;;0.82;0.82;;;;;;;;;;5035602;28;20271;-86
2022/09/04 11:10:41;;;;;;;1.10;1.10;;;;;;;;;;5029057;28;20209;-87
2022/09/04 11:14:07;;;;;;;1.00;1.00;;;;;;;;;;5022684;28;20202;-88
2022/09/04 11:17:24;;;;;;;1.00;1.00;;;;;;;;;;5026205;28;20264;-87
2022/09/04 11:20:31;;;;;;;1.00;1.00;;;;;;;;;;5024509;28;20475;-88
2022/09/04 11:23:44;;;;;;;1.08;1.08;;;;;;;;;;5034452;28;20264;-88
2022/09/04 11:26:56;;;;;;;0.90;0.90;;;;;;;;;;5035161;28;20194;-87
2022/09/04 11:29:47;;;;;;;1.33;1.17;;;;;;;;;;5020701;28;20210;-87
2022/09/04 11:32:51;;;;;;;1.25;1.25;;;;;;;;;;5035014;28;20598;-87
2022/09/04 11:35:57;;;;;;;0.90;0.90;;;;;;;;;;5034653;28;20218;-87
2022/09/04 11:38:47;;;;;;;1.08;1.00;;;;;;;;;;5008951;28;20234;-87
2022/09/04 11:42:02;;;;;;;0.85;0.85;;;;;;;;;;5034700;28;20218;-87
2022/09/04 11:45:09;;;;;;;1.13;1.13;;;;;;;;;;5023708;28;20226;-86
2022/09/04 11:48:14;;;;;;;0.80;0.80;;;;;;;;;;5014296;28;20672;-87
2022/09/04 11:51:00;;;;;;;1.00;1.00;;;;;;;;;;5034413;28;20609;-86
2022/09/04 11:53:59;;;;;;;1.02;1.02;;;;;;;;;;5034510;28;20225;-86
2022/09/04 11:56:50;;;;;;;0.85;0.85;;;;;;;;;;5024515;28;20208;-86
2022/09/04 11:59:50;;;;;;;0.85;0.85;;;;;;;;;;5034030;28;20288;-88
2022/09/04 12:03:13;;;;;;;1.00;1.00;;;;;;;;;;5034107;28;20194;-89
2022/09/04 12:06:08;;;;;;;1.20;1.10;;;;;;;;;;5002115;28;20238;-87
2022/09/04 12:09:06;;;;;;;0.98;0.98;;;;;;;;;;5029936;28;20217;-89
2022/09/04 12:12:26;;;;;;;1.38;1.27;;;;;;;;;;5034065;28;20210;-89
2022/09/04 12:15:26;;;;;;;1.35;1.25;;;;;;;;;;5033827;28;20667;-88
2022/09/04 12:18:26;;;;;;;0.88;0.88;;;;;;;;;;5033993;28;20670;-88
2022/09/04 12:21:27;;;;;;;1.02;1.02;;;;;;;;;;5033702;28;20225;-89
2022/09/04 12:24:14;;;;;;;0.88;0.88;;;;;;;;;;5013751;28;20231;-88
2022/09/04 12:27:01;;;;;;;1.00;1.00;;;;;;;;;;5013785;28;20691;-88
2022/09/04 12:30:09;;;;;;;1.08;1.08;;;;;;;;;;5013912;28;20182;-89
2022/09/04 12:33:29;;;;;;;0.90;0.90;;;;;;;;;;5013953;28;20238;-88
2022/09/04 12:36:50;;;;;;;0.88;0.88;;;;;;;;;;5014101;28;20541;-89
2022/09/04 12:39:56;;;;;;;0.90;0.90;;;;;;;;;;4982719;28;20337;-89
2022/09/04 12:42:28;;;;;;;1.02;1.02;;;;;;;;;;5014037;28;20218;-87
2022/09/04 12:45:10;;;;;;;1.20;1.20;;;;;;;;;;5013679;28;20222;-89
2022/09/04 12:47:51;;;;;;;1.17;1.15;;;;;;;;;;5013863;28;20198;-89
2022/09/04 12:50:34;;;;;;;1.00;1.00;;;;;;;;;;5013798;28;20738;-88
2022/09/04 12:53:36;;;;;;;0.77;0.77;;;;;;;;;;5027346;28;20264;-88
2022/09/04 12:56:10;;;;;;;0.77;0.77;;;;;;;;;;5015819;28;20287;-88
2022/09/04 12:58:58;;;;;;;0.82;0.82;;;;;;;;;;5033337;28;20232;-89
2022/09/04 13:01:36;;;;;;;1.20;1.20;;;;;;;;;;5033547;28;20190;-88
2022/09/04 13:04:14;;;;;;;0.95;0.95;;;;;;;;;;5033056;28;20226;-89
2022/09/04 13:06:52;;;;;;;1.17;1.17;;;;;;;;;;5033660;28;20206;-88
2022/09/04 13:09:27;;;;;;;1.30;1.20;;;;;;;;;;5032978;28;20205;-89
2022/09/04 13:12:07;;;;;;;1.38;1.27;;;;;;;;;;5033256;28;20193;-89
2022/09/04 13:15:06;;;;;;;1.00;1.00;;;;;;;;;;5033045;28;20709;-88
2022/09/04 13:17:44;;;;;;;1.23;1.10;;;;;;;;;;5033110;28;20186;-88
2022/09/04 13:20:22;;;;;;;0.95;0.95;;;;;;;;;;5034392;28;20198;-90
2022/09/04 13:23:09;;;;;;;1.00;1.00;;;;;;;;;;5032651;28;20205;-84
2022/09/04 13:25:51;;;;;;;1.08;1.08;;;;;;;;;;5032851;28;20245;-85
2022/09/04 13:28:29;;;;;;;0.98;0.98;;;;;;;;;;5032612;28;20186;-85
2022/09/04 13:31:18;;;;;;;1.00;1.00;;;;;;;;;;5032696;28;20240;-85
2022/09/04 13:33:53;;;;;;;0.93;0.93;;;;;;;;;;5032680;28;20685;-86
2022/09/04 13:36:34;;;;;;;0.90;0.90;;;;;;;;;;5032673;28;20182;-86
2022/09/04 13:39:40;;;;;;;1.08;1.08;;;;;;;;;;5032689;28;20209;-86
2022/09/04 13:42:28;;;;;;;1.42;1.10;;;;;;;;;;5014672;28;20256;-85
2022/09/04 13:45:08;;;;;;;1.10;1.10;;;;;;;;;;5032085;28;20321;-85
2022/09/04 13:47:48;;;;;;;1.60;1.50;;;;;;;;;;5032674;28;20186;-85
2022/09/04 13:50:21;;;;;;;0.93;0.93;;;;;;;;;;5032826;28;20193;-84
2022/09/04 13:52:54;;;;;;;1.40;1.30;;;;;;;;;;5032596;28;20616;-85
2022/09/04 13:55:25;;;;;;;1.00;1.00;;;;;;;;;;5033058;28;20218;-86
2022/09/04 13:57:59;;;;;;;1.25;1.25;;;;;;;;;;5034682;28;20183;-85
2022/09/04 14:00:31;;;;;;;1.08;1.08;;;;;;;;;;5032698;28;20189;-86
2022/09/04 14:03:02;;;;;;;1.40;1.40;;;;;;;;;;5031995;28;20182;-86
2022/09/04 14:05:33;;;;;;;1.20;1.20;;;;;;;;;;5032418;28;20567;-85
2022/09/04 14:08:04;;;;;;;1.10;1.10;;;;;;;;;;5034827;28;20221;-85
2022/09/04 14:10:49;;;;;;;1.75;1.65;;;;;;;;;;5036883;28;20214;-85
2022/09/04 14:13:29;;;;;;;0.95;0.95;;;;;;;;;;5035997;28;20183;-85
2022/09/04 14:16:07;;;;;;;1.45;1.35;;;;;;;;;;5036562;28;20183;-85
2022/09/04 14:19:16;;;;;;;0.85;0.85;;;;;;;;;;5036292;28;20620;-85
2022/09/04 14:22:05;;;;;;;0.80;0.80;;;;;;;;;;5036022;28;20206;-85
2022/09/04 14:24:38;;;;;;;1.23;1.13;;;;;;;;;;5036611;28;20265;-84
2022/09/04 14:27:11;;;;;;;1.50;1.38;;;;;;;;;;5037613;28;20199;-85
2022/09/04 14:29:49;;;;;;;1.50;1.40;;;;;;;;;;5037028;28;20186;-85
2022/09/04 14:32:31;;;;;;;1.10;1.10;;;;;;;;;;5035619;28;20213;-86
2022/09/04 14:35:07;;;;;;;0.95;0.95;;;;;;;;;;5035332;28;20222;-86
2022/09/04 14:37:50;;;;;;;1.15;1.08;;;;;;;;;;5035714;28;20554;-85
2022/09/04 14:40:24;;;;;;;1.35;1.25;;;;;;;;;;5035424;28;20186;-86
2022/09/04 14:42:57;;;;;;;1.02;1.00;;;;;;;;;;5035136;28;20624;-87
2022/09/04 14:46:03;;;;;;;0.80;0.80;;;;;;;;;;5034402;28;20776;-87
2022/09/04 14:48:39;;;;;;;1.00;1.00;;;;;;;;;;5034840;28;20199;-84
2022/09/04 14:51:18;;;;;;;1.00;1.00;;;;;;;;;;5035410;28;20277;-86
2022/09/04 14:53:54;;;;;;;0.80;0.80;;;;;;;;;;5049865;28;20257;-85
2022/09/04 14:56:31;;;;;;;0.80;0.80;;;;;;;;;;5055154;28;20178;-84
2022/09/04 14:59:08;;;;;;;0.90;0.90;;;;;;;;;;5055071;28;20282;-86
2022/09/04 15:01:55;;;;;;;0.90;0.90;;;;;;;;;;5055235;28;20221;-85
2022/09/04 15:04:27;;;;;;;1.00;1.00;;;;;;;;;;5054788;28;20563;-85
2022/09/04 15:06:58;;;;;;;1.30;1.27;;;;;;;;;;5055252;28;20577;-85
2022/09/04 15:09:30;;;;;;;1.10;1.10;;;;;;;;;;5055310;28;20205;-85
2022/09/04 15:12:16;;;;;;;1.02;1.02;;;;;;;;;;5054665;28;20186;-84
2022/09/04 15:14:47;;;;;;;0.80;0.80;;;;;;;;;;5054670;28;20249;-85
2022/09/04 15:17:27;;;;;;;1.23;1.13;;;;;;;;;;5054587;28;20228;-85
2022/09/04 15:20:01;;;;;;;0.90;0.90;;;;;;;;;;5054271;28;20661;-85
2022/09/04 15:22:36;;;;;;;0.80;0.80;;;;;;;;;;5045502;28;20224;-85
2022/09/04 15:25:08;;;;;;;1.00;1.00;;;;;;;;;;5034441;28;20694;-85
2022/09/04 15:27:45;;;;;;;1.27;1.20;;;;;;;;;;5034694;28;20197;-85
2022/09/04 15:30:20;;;;;;;1.02;0.98;;;;;;;;;;5035025;28;20218;-85
2022/09/04 15:32:48;;;;;;;1.60;1.40;;;;;;;;;;5034798;28;20193;-85
2022/09/04 15:35:24;;;;;;;1.23;1.20;;;;;;;;;;5034655;28;20585;-85
2022/09/04 15:38:05;;;;;;;1.10;1.10;;;;;;;;;;5034547;28;20205;-85
2022/09/04 15:40:36;;;;;;;1.30;1.20;;;;;;;;;;5034869;28;20225;-85
2022/09/04 15:43:11;;;;;;;1.05;1.05;;;;;;;;;;5034560;28;20277;-85
2022/09/04 15:45:46;;;;;;;1.40;1.30;;;;;;;;;;5034020;28;20240;-85
2022/09/04 15:48:34;;;;;;;1.15;1.15;;;;;;;;;;5034438;28;20174;-85
2022/09/04 15:51:18;;;;;;;1.15;1.13;;;;;;;;;;5034957;28;20300;-85
2022/09/04 15:54:12;;;;;;;1.55;1.45;;;;;;;;;;5034864;28;20230;-84
2022/09/04 15:56:44;;;;;;;1.40;1.30;;;;;;;;;;5034491;28;20221;-85
2022/09/04 15:59:16;;;;;;;1.33;1.20;;;;;;;;;;5034553;28;20268;-84
2022/09/04 16:01:49;;;;;;;1.48;1.38;;;;;;;;;;5034584;28;20218;-86
2022/09/04 16:04:26;;;;;;;0.95;0.95;;;;;;;;;;5034109;28;20253;-85
2022/09/04 16:07:03;;;;;;;1.48;1.38;;;;;;;;;;5033773;28;20206;-85
2022/09/04 16:09:39;;;;;;;0.93;0.93;;;;;;;;;;5033910;28;20285;-85
2022/09/04 16:12:13;;;;;;;0.93;0.93;;;;;;;;;;5034219;28;20186;-86
2022/09/04 16:14:45;;;;;;;0.80;0.80;;;;;;;;;;5034085;28;20221;-86
2022/09/04 16:17:16;;;;;;;0.73;0.73;;;;;;;;;;5033681;28;20679;-86
2022/09/04 16:19:48;;;;;;;1.17;1.17;;;;;;;;;;5033950;28;20179;-85
2022/09/04 16:22:30;;;;;;;0.90;0.90;;;;;;;;;;5034325;28;20210;-86
2022/09/04 16:25:09;;;;;;;0.80;0.80;;;;;;;;;;5033714;28;20626;-86
2022/09/04 16:27:44;;;;;;;0.75;0.75;;;;;;;;;;5033495;28;20202;-86
2022/09/04 16:30:29;;;;;;;1.02;1.02;;;;;;;;;;5033164;28;20192;-86
2022/09/04 16:32:57;;;;;;;0.90;0.90;;;;;;;;;;5033881;28;20213;-86
2022/09/04 16:35:27;;;;;;;1.05;1.05;;;;;;;;;;5033198;28;20253;-86
2022/09/04 16:38:06;;;;;;;0.90;0.90;;;;;;;;;;5033485;28;20183;-86
2022/09/04 16:40:37;;;;;;;0.90;0.90;;;;;;;;;;5033891;28;20191;-86